Denver International Airport
KDEN : now visible

Airfield :











YOU CAN JOIN US ON...

 
LOGIN :

Register | Disclaimer

   EN    FR    IT 

 









Legend :    VFR   Marginal VFR   IFR   Intensive IFR   Very Intensive IFR
Visi :
Ceiling :
>= 8 km
>= 3000ft
5 to 8 km
1000 to 3000 ft
1500m to 5 km
500 to 1000 ft
800 to 1500m
200 to 500 ft
< 800m
< 200 ft
Symbols :   Thunderstorms  Fog  Heavy snow  Heavy precipitations  Wind > 20 kt






- Airport Elevation : 5431 ft
- IATA code : DEN


KDEN - Denver International

CURRENT METAR :
  • 271453Z 28005KT 8SM FEW002 FEW220 M12/M14 A3005 RMK AO2 SLP239 T11221144 53015

EXPIRED METARs :
  • 271353Z 15006KT 10SM CLR M16/M18 A3002 RMK AO2 SLP236 T11561183
  • 271253Z 16004KT 10SM CLR M13/M16 A3001 RMK AO2 SLP224 T11331156

TAF KDEN
Valid from the 27 at 15:00 until the 28 at 18:00 UTC


271510Z 2715/2818 20006KT P6SM VCFG FEW002
FM271600 18010KT P6SM FEW200
FM271900 36008KT P6SM FEW200
FM272300 32007KT P6SM SCT200
FM280100 25007KT P6SM SCT200
FM280300 21007KT P6SM SCT200
FM281400 25006KT P6SM SCT200
KZDV FIR / North America



MET'MAP, your aeronautical weather chart ! - Copyright ORBIFLY December 2007 - Disclaimer

ORBIFLY MET'MAP TEAM :

Programming & Development : Alexandra Zaïnal
Concept & original design : Baudouin d'Aumeries
Assistance for programming : Marc-Olivier Méhu
Technical & hardware support : Manuel Goepfert

Contact : metmap@orbifly.com




SOURCES & CREDITS :

   NOAA       Earth
Advisory